createdAt,value
2022-08-22T00:02:03.421Z,2.08
2022-08-22T00:02:45.270Z,1.45
2022-08-22T00:02:49.197Z,2.25
2022-08-22T00:02:55.068Z,1.50
2022-08-22T00:02:56.069Z,2.13
2022-08-22T00:02:58.751Z,1.70
2022-08-22T00:03:00.023Z,1.05
2022-08-22T00:03:00.779Z,1.45
2022-08-22T00:04:43.112Z,1.80
2022-08-22T00:07:37.097Z,2.13
2022-08-22T00:10:12.065Z,1.80
2022-08-22T00:13:00.071Z,2.15
2022-08-22T00:15:43.247Z,1.90
2022-08-22T00:18:51.027Z,1.65
2022-08-22T00:21:29.632Z,2.20
2022-08-22T00:24:16.590Z,2.03
2022-08-22T00:27:07.523Z,2.22
2022-08-22T00:29:55.960Z,2.00
2022-08-22T00:32:54.264Z,2.17
2022-08-22T00:35:32.289Z,2.80
2022-08-22T00:38:22.138Z,1.73
2022-08-22T00:41:16.597Z,1.92
2022-08-22T00:44:11.332Z,1.90
2022-08-22T00:46:51.400Z,1.85
2022-08-22T00:49:42.341Z,2.42
2022-08-22T00:52:29.534Z,1.85
2022-08-22T00:55:11.423Z,1.80
2022-08-22T00:58:04.669Z,2.20
2022-08-22T01:00:40.838Z,1.98
2022-08-22T01:03:26.714Z,2.28
2022-08-22T01:06:10.792Z,2.22
2022-08-22T01:08:51.098Z,2.25
2022-08-22T01:12:01.483Z,1.80
2022-08-22T01:14:40.892Z,1.65
2022-08-22T01:17:33.175Z,1.95
2022-08-22T01:20:28.162Z,2.05
2022-08-22T01:23:18.847Z,1.80
2022-08-22T01:26:03.835Z,2.47
2022-08-22T01:28:45.811Z,1.40
2022-08-22T01:31:31.703Z,2.00
2022-08-22T01:34:40.022Z,1.60
2022-08-22T01:37:28.382Z,2.22
2022-08-22T01:40:53.963Z,2.15
2022-08-22T01:44:01.607Z,2.08
2022-08-22T01:46:34.235Z,2.15
2022-08-22T01:49:40.966Z,2.15
2022-08-22T01:52:48.383Z,1.83
2022-08-22T01:55:36.947Z,1.88
2022-08-22T01:58:18.276Z,1.95
2022-08-22T02:01:13.461Z,2.70
2022-08-22T02:03:55.513Z,2.10
2022-08-22T02:06:33.172Z,2.75
2022-08-22T02:09:22.327Z,2.53
2022-08-22T02:12:00.254Z,1.90
2022-08-22T02:14:36.542Z,2.30
2022-08-22T02:17:27.924Z,1.50
2022-08-22T02:20:16.235Z,2.00
2022-08-22T02:23:19.596Z,2.65
2022-08-22T02:25:56.533Z,2.17
2022-08-22T02:28:25.969Z,2.30
2022-08-22T02:30:56.689Z,1.90
2022-08-22T02:33:34.058Z,1.67
2022-08-22T02:36:16.240Z,2.35
2022-08-22T02:38:56.669Z,1.85
2022-08-22T02:41:44.516Z,2.17
2022-08-22T02:44:51.945Z,2.30
2022-08-22T02:47:46.147Z,1.80
2022-08-22T02:50:38.544Z,2.05
2022-08-22T02:53:17.378Z,2.13
2022-08-22T02:55:48.170Z,2.25
2022-08-22T02:58:40.736Z,2.00
2022-08-22T03:01:23.795Z,1.95
2022-08-22T03:03:52.551Z,2.28
2022-08-22T03:06:43.665Z,1.88
2022-08-22T03:09:16.311Z,2.63
2022-08-22T03:12:19.517Z,2.10
2022-08-22T03:15:28.431Z,1.98
2022-08-22T03:18:16.878Z,1.92
2022-08-22T03:20:54.033Z,1.83
2022-08-22T03:23:44.051Z,1.55
2022-08-22T03:26:22.541Z,2.20
2022-08-22T03:29:02.905Z,2.58
2022-08-22T03:31:31.890Z,2.05
2022-08-22T03:34:26.609Z,2.05
2022-08-22T03:37:06.948Z,2.40
2022-08-22T03:39:59.816Z,2.70
2022-08-22T03:42:29.521Z,2.58
2022-08-22T03:44:59.677Z,2.75
2022-08-22T03:47:49.596Z,2.88
2022-08-22T03:50:22.310Z,2.22
2022-08-22T03:53:19.466Z,2.15
2022-08-22T03:56:28.004Z,3.60
2022-08-22T03:59:16.541Z,3.78
2022-08-22T04:02:43.620Z,2.33
2022-08-22T04:05:26.753Z,2.30
2022-08-22T04:08:26.136Z,2.17
2022-08-22T04:11:11.294Z,1.80
2022-08-22T04:14:16.552Z,3.10
2022-08-22T04:16:49.357Z,2.38
2022-08-22T04:19:47.901Z,2.30
2022-08-22T04:22:29.401Z,2.15
2022-08-22T04:24:59.606Z,2.15
2022-08-22T04:27:35.878Z,2.30
2022-08-22T04:30:31.824Z,2.53
2022-08-22T04:33:10.738Z,2.22
2022-08-22T04:36:01.942Z,2.33
2022-08-22T04:38:36.779Z,2.38
2022-08-22T04:41:19.317Z,2.45
2022-08-22T04:43:58.825Z,2.80
2022-08-22T04:46:36.634Z,2.65
2022-08-22T04:49:29.090Z,3.00
2022-08-22T04:52:29.401Z,2.85
2022-08-22T04:55:08.703Z,3.40
2022-08-22T04:57:57.385Z,2.47
2022-08-22T05:00:26.283Z,2.65
2022-08-22T05:02:57.859Z,2.38
2022-08-22T05:05:29.199Z,3.15
2022-08-22T05:07:59.821Z,3.03
2022-08-22T05:10:38.512Z,2.55
2022-08-22T05:13:15.653Z,2.95
2022-08-22T05:15:47.695Z,2.60
2022-08-22T05:18:29.568Z,2.78
2022-08-22T05:21:00.501Z,3.05
2022-08-22T05:23:46.781Z,2.78
2022-08-22T05:26:15.108Z,2.40
2022-08-22T05:28:50.170Z,3.08
2022-08-22T05:31:26.692Z,2.97
2022-08-22T05:33:59.602Z,2.85
2022-08-22T05:36:30.071Z,2.60
2022-08-22T05:39:05.017Z,2.50
2022-08-22T05:41:36.783Z,2.80
2022-08-22T05:44:03.897Z,3.05
2022-08-22T05:46:41.899Z,2.70
2022-08-22T05:49:19.741Z,2.17
2022-08-22T05:52:20.315Z,2.53
2022-08-22T05:55:03.611Z,3.13
2022-08-22T05:57:35.742Z,3.22
2022-08-22T06:00:11.472Z,3.17
2022-08-22T06:03:17.524Z,3.70
2022-08-22T06:05:51.043Z,3.38
2022-08-22T06:08:27.149Z,3.05
2022-08-22T06:10:56.315Z,3.38
2022-08-22T06:13:42.454Z,3.08
2022-08-22T06:16:24.552Z,2.92
2022-08-22T06:18:52.633Z,3.97
2022-08-22T06:21:25.617Z,3.92
2022-08-22T06:23:59.903Z,2.70
2022-08-22T06:26:48.214Z,2.70
2022-08-22T06:29:36.432Z,2.58
2022-08-22T06:32:16.613Z,2.88
2022-08-22T06:35:11.221Z,2.75
2022-08-22T06:37:41.360Z,3.40
2022-08-22T06:40:11.255Z,3.67
2022-08-22T06:42:42.704Z,2.92
2022-08-22T06:45:29.696Z,2.85
2022-08-22T06:48:12.537Z,2.75
2022-08-22T06:50:42.550Z,2.58
2022-08-22T06:53:17.736Z,3.40
2022-08-22T06:56:05.405Z,2.90
2022-08-22T06:58:44.489Z,3.13
2022-08-22T07:01:16.071Z,3.33
2022-08-22T07:03:50.102Z,3.72
2022-08-22T07:06:21.195Z,3.75
2022-08-22T07:08:53.435Z,2.30
2022-08-22T07:11:28.674Z,2.42
2022-08-22T07:14:00.209Z,2.92
2022-08-22T07:16:34.364Z,2.92
2022-08-22T07:19:01.717Z,2.25
2022-08-22T07:21:32.589Z,2.60
2022-08-22T07:24:03.213Z,2.60
2022-08-22T07:27:02.694Z,2.45
2022-08-22T07:29:49.254Z,3.47
2022-08-22T07:32:24.661Z,2.08
2022-08-22T07:34:59.564Z,2.40
2022-08-22T07:37:33.163Z,2.10
2022-08-22T07:40:34.981Z,2.22
2022-08-22T07:43:15.330Z,2.08
2022-08-22T07:46:01.931Z,2.10
2022-08-22T07:48:59.343Z,1.58
2022-08-22T07:51:47.855Z,2.63
2022-08-22T07:54:27.234Z,1.73
2022-08-22T07:57:11.815Z,1.40
2022-08-22T07:59:45.862Z,2.03
2022-08-22T08:02:14.413Z,1.33
2022-08-22T08:04:42.585Z,1.77
2022-08-22T08:07:13.713Z,1.42
2022-08-22T08:09:45.757Z,1.45
2022-08-22T08:12:14.974Z,1.75
2022-08-22T08:14:44.561Z,1.50
2022-08-22T08:17:28.788Z,2.03
2022-08-22T08:20:02.742Z,1.70
2022-08-22T08:22:29.740Z,1.35
2022-08-22T08:24:59.004Z,3.05
2022-08-22T08:27:50.496Z,1.77
2022-08-22T08:30:35.402Z,1.55
2022-08-22T08:33:25.155Z,1.83
2022-08-22T08:36:11.229Z,1.80
2022-08-22T08:38:55.491Z,2.20
2022-08-22T08:41:36.927Z,1.50
2022-08-22T08:44:24.632Z,1.67
2022-08-22T08:47:11.165Z,2.25
2022-08-22T08:49:55.404Z,1.92
2022-08-22T08:52:36.360Z,1.77
2022-08-22T08:55:22.760Z,1.40
2022-08-22T08:58:26.650Z,1.15
2022-08-22T09:01:02.221Z,1.45
2022-08-22T09:03:52.972Z,1.50
2022-08-22T09:06:52.852Z,1.73
2022-08-22T09:09:52.728Z,1.23
2022-08-22T09:16:05.047Z,1.27
2022-08-22T09:19:00.303Z,1.33
2022-08-22T09:22:04.149Z,1.35
2022-08-22T09:27:02.060Z,1.58
2022-08-22T09:29:57.103Z,2.20
2022-08-22T09:32:33.657Z,1.48
2022-08-22T09:35:05.571Z,1.08
2022-08-22T09:37:47.850Z,1.60
2022-08-22T09:40:16.449Z,1.80
2022-08-22T09:43:12.723Z,1.20
2022-08-22T09:45:45.298Z,1.33
2022-08-22T09:48:31.518Z,1.35
2022-08-22T09:51:33.302Z,1.17
2022-08-22T09:54:31.684Z,1.13
2022-08-22T09:57:30.737Z,1.58
2022-08-22T10:00:13.351Z,1.23
2022-08-22T10:03:11.353Z,1.67
2022-08-22T10:08:26.190Z,1.35
2022-08-22T10:11:03.220Z,1.90
2022-08-22T10:14:10.118Z,2.25
2022-08-22T10:16:59.627Z,1.45
2022-08-22T10:19:47.836Z,1.58
2022-08-22T10:22:46.977Z,1.58
2022-08-22T10:25:28.751Z,1.75
2022-08-22T10:28:23.788Z,1.80
2022-08-22T10:31:08.035Z,2.35
2022-08-22T10:36:23.676Z,2.50
2022-08-22T10:38:55.806Z,1.90
2022-08-22T10:41:32.593Z,2.25
2022-08-22T10:44:16.907Z,2.50
2022-08-22T10:47:03.357Z,2.22
2022-08-22T10:49:51.315Z,2.33
2022-08-22T10:52:26.821Z,2.17
2022-08-22T10:55:00.788Z,3.47
2022-08-22T10:57:57.288Z,2.60
2022-08-22T11:00:49.728Z,2.20
2022-08-22T11:03:42.130Z,2.00
2022-08-22T11:09:17.201Z,2.30
2022-08-22T11:11:46.527Z,2.58
2022-08-22T11:14:33.732Z,2.13
2022-08-22T11:17:29.930Z,2.40
2022-08-22T11:20:21.230Z,2.38
2022-08-22T11:23:06.369Z,1.73
2022-08-22T11:25:52.386Z,2.15
2022-08-22T11:28:58.053Z,2.45
2022-08-22T11:31:55.352Z,2.10
2022-08-22T11:34:53.498Z,1.52
2022-08-22T11:37:54.905Z,1.88
2022-08-22T11:40:34.277Z,1.98
2022-08-22T11:43:07.436Z,1.90
2022-08-22T11:45:50.004Z,1.30
2022-08-22T11:48:28.910Z,2.05
2022-08-22T11:51:14.071Z,2.10
2022-08-22T11:53:48.122Z,2.05
2022-08-22T11:56:35.662Z,2.17
2022-08-22T11:59:32.966Z,2.08
2022-08-22T12:02:17.441Z,2.08
2022-08-22T12:05:03.853Z,2.72
2022-08-22T12:07:37.724Z,1.80
2022-08-22T12:10:17.094Z,2.13
2022-08-22T12:13:05.470Z,2.05
2022-08-22T12:15:47.236Z,2.72
2022-08-22T12:18:41.228Z,2.85
2022-08-22T12:21:38.617Z,2.13
2022-08-22T12:24:30.570Z,1.88
2022-08-22T12:27:09.948Z,1.83
2022-08-22T12:30:05.123Z,2.58
2022-08-22T12:32:56.815Z,2.28
2022-08-22T12:35:29.914Z,2.00
2022-08-22T12:38:29.005Z,2.20
2022-08-22T12:41:28.116Z,2.50
2022-08-22T12:44:30.932Z,2.25
2022-08-22T12:47:09.884Z,2.97
2022-08-22T12:50:00.649Z,2.45
2022-08-22T12:52:55.579Z,3.03
2022-08-22T12:56:12.894Z,2.10
2022-08-22T12:59:12.526Z,2.13
2022-08-22T13:01:48.102Z,2.80
2022-08-22T13:04:33.569Z,1.95
2022-08-22T13:07:07.338Z,2.08
2022-08-22T13:09:37.609Z,2.22
2022-08-22T13:12:22.986Z,2.20
2022-08-22T13:14:54.592Z,2.00
2022-08-22T13:17:24.947Z,2.35
2022-08-22T13:20:16.019Z,2.15
2022-08-22T13:22:46.050Z,2.00
2022-08-22T13:25:25.841Z,2.85
2022-08-22T13:28:02.468Z,2.42
2022-08-22T13:30:37.659Z,1.95
2022-08-22T13:33:12.136Z,2.67
2022-08-22T13:35:54.285Z,2.40
2022-08-22T13:38:38.390Z,2.38
2022-08-22T13:41:18.709Z,1.95
2022-08-22T13:44:04.846Z,1.90
2022-08-22T13:47:10.889Z,1.88
2022-08-22T13:49:42.074Z,2.33
2022-08-22T13:52:30.030Z,2.42
2022-08-22T13:55:28.867Z,2.08
2022-08-22T13:58:06.978Z,2.63
2022-08-22T14:01:12.338Z,2.05
2022-08-22T14:03:55.403Z,2.40
2022-08-22T14:06:46.446Z,1.67
2022-08-22T14:09:31.202Z,2.10
2022-08-22T14:12:16.097Z,2.22
2022-08-22T14:14:46.888Z,2.90
2022-08-22T14:17:17.485Z,1.65
2022-08-22T14:19:59.599Z,2.15
2022-08-22T14:22:35.294Z,2.08
2022-08-22T14:25:11.634Z,1.70
2022-08-22T14:27:47.726Z,2.50
2022-08-22T14:30:24.454Z,2.30
2022-08-22T14:33:22.378Z,2.13
2022-08-22T14:35:54.028Z,2.15
2022-08-22T14:38:33.025Z,1.92
2022-08-22T14:41:21.058Z,1.80
2022-08-22T14:44:06.922Z,1.92
2022-08-22T14:46:51.721Z,2.10
2022-08-22T14:49:18.424Z,2.50
2022-08-22T14:51:59.962Z,2.05
2022-08-22T14:54:28.960Z,2.42
2022-08-22T14:56:57.412Z,2.30
2022-08-22T14:59:38.865Z,2.70
2022-08-22T15:02:27.639Z,2.20
2022-08-22T15:04:56.140Z,1.85
2022-08-22T15:07:29.917Z,2.00
2022-08-22T15:10:03.367Z,2.55
2022-08-22T15:12:43.570Z,2.45
2022-08-22T15:15:41.125Z,1.60
2022-08-22T15:18:28.433Z,2.80
2022-08-22T15:21:11.439Z,2.40
2022-08-22T15:23:52.878Z,2.10
2022-08-22T15:26:40.946Z,2.03
2022-08-22T15:29:20.765Z,1.98
2022-08-22T15:31:54.626Z,3.00
2022-08-22T15:34:37.844Z,2.35
2022-08-22T15:37:25.493Z,2.42
2022-08-22T15:39:57.843Z,2.10
2022-08-22T15:42:33.176Z,1.88
2022-08-22T15:45:00.977Z,2.25
2022-08-22T15:47:47.355Z,2.55
2022-08-22T15:50:58.320Z,2.38
2022-08-22T15:53:34.204Z,2.20
2022-08-22T15:56:06.975Z,2.10
2022-08-22T15:58:48.922Z,2.28
2022-08-22T16:01:22.522Z,2.55
2022-08-22T16:04:06.708Z,2.20
2022-08-22T16:07:01.408Z,2.58
2022-08-22T16:09:44.462Z,2.80
2022-08-22T16:12:26.059Z,2.30
2022-08-22T16:14:53.354Z,2.33
2022-08-22T16:17:29.258Z,1.48
2022-08-22T16:20:19.421Z,2.17
2022-08-22T16:22:59.290Z,1.65
2022-08-22T16:25:50.376Z,1.83
2022-08-22T16:28:56.882Z,1.80
2022-08-22T16:31:27.314Z,2.10
2022-08-22T16:33:59.009Z,2.17
2022-08-22T16:36:41.033Z,1.77
2022-08-22T16:39:41.214Z,2.85
2022-08-22T16:42:22.119Z,3.17
2022-08-22T16:45:06.878Z,1.98
2022-08-22T16:47:33.448Z,2.40
2022-08-22T16:50:24.323Z,1.90
2022-08-22T16:52:53.998Z,2.17
2022-08-22T16:55:44.449Z,2.20
2022-08-22T16:58:40.267Z,2.58
2022-08-22T17:01:38.250Z,2.35
2022-08-22T17:04:32.073Z,2.80
2022-08-22T17:06:58.713Z,2.40
2022-08-22T17:09:50.056Z,1.90
2022-08-22T17:12:37.120Z,2.35
2022-08-22T17:15:21.294Z,1.50
2022-08-22T17:17:53.912Z,2.33
2022-08-22T17:20:37.768Z,2.67
2022-08-22T17:23:22.987Z,2.83
2022-08-22T17:26:04.096Z,1.58
2022-08-22T17:28:52.604Z,2.20
2022-08-22T17:31:38.722Z,2.63
2022-08-22T17:34:47.412Z,2.33
2022-08-22T17:37:26.132Z,2.60
2022-08-22T17:40:17.729Z,2.05
2022-08-22T17:43:48.680Z,2.50
2022-08-22T17:46:31.319Z,2.22
2022-08-22T17:49:12.837Z,2.08
2022-08-22T17:51:51.061Z,1.85
2022-08-22T17:54:31.792Z,1.77
2022-08-22T17:57:14.617Z,2.20
2022-08-22T17:59:59.266Z,2.45
2022-08-22T18:02:41.676Z,2.33
2022-08-22T18:05:19.500Z,2.50
2022-08-22T18:08:01.677Z,2.50
2022-08-22T18:10:47.760Z,2.20
2022-08-22T18:13:49.506Z,3.25
2022-08-22T18:16:33.903Z,2.78
2022-08-22T18:19:17.930Z,3.10
2022-08-22T18:22:04.677Z,2.42
2022-08-22T18:24:42.056Z,3.38
2022-08-22T18:27:34.981Z,2.35
2022-08-22T18:30:19.880Z,2.83
2022-08-22T18:32:47.061Z,2.90
2022-08-22T18:35:41.105Z,2.22
2022-08-22T18:38:24.104Z,2.20
2022-08-22T18:41:05.431Z,2.22
2022-08-22T18:44:50.960Z,2.92
2022-08-22T18:46:38.501Z,2.58
2022-08-22T18:49:34.407Z,2.72
2022-08-22T18:52:18.047Z,2.58
2022-08-22T18:55:15.537Z,2.67
2022-08-22T18:58:07.185Z,2.70
2022-08-22T19:01:04.830Z,3.67
2022-08-22T19:03:43.627Z,3.40
2022-08-22T19:06:32.200Z,3.15
2022-08-22T19:09:10.848Z,3.17
2022-08-22T19:12:18.439Z,3.63
2022-08-22T19:15:06.985Z,3.83
2022-08-22T19:17:58.718Z,5.18
2022-08-22T19:20:53.785Z,4.93
2022-08-22T19:23:32.508Z,4.90
2022-08-22T19:26:23.464Z,4.63
2022-08-22T19:28:57.953Z,5.85
2022-08-22T19:31:57.783Z,4.40
2022-08-22T19:34:33.013Z,3.92
2022-08-22T19:37:32.703Z,3.85
2022-08-22T19:40:16.901Z,3.50
2022-08-22T19:42:56.205Z,2.97
2022-08-22T19:45:30.802Z,3.72
2022-08-22T19:51:41.057Z,2.95
2022-08-22T19:54:41.964Z,3.70
2022-08-22T19:57:20.262Z,3.05
2022-08-22T20:00:40.584Z,3.20
2022-08-22T20:03:41.777Z,3.90
2022-08-22T20:06:43.390Z,3.83
2022-08-22T20:09:40.899Z,2.88
2022-08-22T20:12:47.676Z,2.85
2022-08-22T20:15:26.602Z,2.80
2022-08-22T20:18:47.241Z,2.30
2022-08-22T20:21:07.331Z,2.90
2022-08-22T20:23:34.624Z,3.42
2022-08-22T20:26:08.155Z,2.67
2022-08-22T20:32:21.700Z,2.88
2022-08-22T20:35:06.370Z,2.85
2022-08-22T20:38:08.524Z,3.03
2022-08-22T20:40:57.379Z,2.70
2022-08-22T20:43:34.588Z,2.63
2022-08-22T20:46:44.041Z,2.40
2022-08-22T20:49:23.612Z,2.00
2022-08-22T20:52:00.717Z,1.98
2022-08-22T20:57:03.025Z,2.63
2022-08-22T20:59:41.628Z,2.53
2022-08-22T21:02:29.586Z,2.60
2022-08-22T21:05:14.581Z,3.75
2022-08-22T21:08:10.074Z,2.80
2022-08-22T21:10:57.887Z,3.00
2022-08-22T21:13:48.487Z,2.45
2022-08-22T21:16:33.381Z,2.72
2022-08-22T21:19:04.179Z,2.92
2022-08-22T21:21:34.873Z,2.80
2022-08-22T21:24:11.697Z,3.38
2022-08-22T21:26:50.111Z,2.67
2022-08-22T21:29:16.671Z,3.15
2022-08-22T21:31:51.895Z,2.40
2022-08-22T21:34:26.526Z,2.35
2022-08-22T21:37:02.618Z,3.15
2022-08-22T21:39:47.737Z,2.05
2022-08-22T21:42:36.319Z,2.50
2022-08-22T21:45:15.954Z,2.38
2022-08-22T21:47:45.490Z,2.85
2022-08-22T21:50:25.145Z,3.58
2022-08-22T21:53:10.134Z,3.30
2022-08-22T21:55:43.166Z,3.10
2022-08-22T21:59:00.479Z,2.90
2022-08-22T22:01:32.752Z,2.72
2022-08-22T22:04:03.283Z,2.30
2022-08-22T22:06:32.277Z,3.20
2022-08-22T22:08:59.014Z,2.58
2022-08-22T22:11:29.748Z,2.17
2022-08-22T22:13:59.060Z,2.42
2022-08-22T22:16:28.350Z,2.60
2022-08-22T22:18:58.226Z,2.53
2022-08-22T22:21:24.847Z,2.60
2022-08-22T22:23:52.483Z,2.08
2022-08-22T22:26:21.009Z,2.88
2022-08-22T22:28:51.206Z,2.58
2022-08-22T22:31:18.590Z,2.58
2022-08-22T22:33:45.734Z,2.58
2022-08-22T22:36:18.176Z,2.60
2022-08-22T22:38:44.945Z,3.63
2022-08-22T22:41:17.188Z,2.85
2022-08-22T22:43:45.390Z,2.58
2022-08-22T22:46:14.580Z,2.65
2022-08-22T22:48:41.400Z,2.72
2022-08-22T22:51:09.880Z,2.80
2022-08-22T22:53:38.358Z,2.75
2022-08-22T22:56:09.241Z,2.95
2022-08-22T22:58:37.487Z,2.65
2022-08-22T23:01:13.209Z,3.22
2022-08-22T23:03:40.468Z,2.40
2022-08-22T23:06:12.206Z,3.30
2022-08-22T23:08:40.316Z,3.10
2022-08-22T23:11:12.461Z,3.03
2022-08-22T23:13:42.954Z,3.60
2022-08-22T23:16:14.195Z,2.75
2022-08-22T23:18:45.405Z,2.67
2022-08-22T23:21:22.001Z,2.72
2022-08-22T23:23:49.619Z,2.88
2022-08-22T23:26:16.988Z,3.05
2022-08-22T23:28:44.346Z,3.88
2022-08-22T23:31:34.964Z,2.92
2022-08-22T23:34:07.969Z,2.80
2022-08-22T23:36:37.359Z,3.28
2022-08-22T23:39:06.835Z,3.30
2022-08-22T23:41:36.778Z,4.05
2022-08-22T23:44:05.678Z,3.50
2022-08-22T23:46:32.829Z,3.60
2022-08-22T23:49:02.470Z,2.85
2022-08-22T23:51:29.591Z,3.20
2022-08-22T23:53:57.958Z,3.17
2022-08-22T23:56:27.556Z,3.50
2022-08-22T23:58:54.613Z,3.53
